Time;durP1;ratioP1;P1;durP2;ratioP2;P2;SDS_P1;SDS_P2;PMS_P1;PMS_P2;Temp;Humidity;BMP_temperature;BMP_pressure;BME280_temperature;BME280_humidity;BME280_pressure;Samples;Min_cycle;Max_cycle;Signal;HPM_P1;HPM_P2
2023/02/21 02:16:24;;;;;;;41.77;25.37;;;7.80;99.90;;;;;;5049449;28;20469;-73
2023/02/21 02:19:08;;;;;;;39.77;25.10;;;7.80;99.90;;;;;;5056280;28;20533;-75
2023/02/21 02:22:06;;;;;;;49.03;28.33;;;7.90;99.90;;;;;;5059303;28;20497;-71
2023/02/21 02:24:52;;;;;;;49.33;25.40;;;7.90;99.90;;;;;;5051576;28;20485;-72
2023/02/21 02:27:43;;;;;;;50.57;27.30;;;7.90;99.90;;;;;;5053892;28;20836;-72
2023/02/21 02:30:39;;;;;;;47.40;26.83;;;7.80;99.90;;;;;;5061339;28;20464;-74
2023/02/21 02:33:39;;;;;;;44.07;24.13;;;7.90;99.90;;;;;;5058058;28;20473;-74
2023/02/21 02:36:12;;;;;;;41.83;26.00;;;7.80;99.90;;;;;;5051416;28;20646;-72
2023/02/21 02:38:51;;;;;;;44.00;23.83;;;7.80;99.90;;;;;;5047864;28;20464;-73
2023/02/21 02:41:27;;;;;;;49.27;27.67;;;7.70;99.90;;;;;;5058230;28;20563;-74
2023/02/21 02:43:59;;;;;;;48.00;27.63;;;7.80;99.90;;;;;;5053595;28;20467;-72
2023/02/21 02:46:30;;;;;;;41.47;23.13;;;7.80;99.90;;;;;;5058482;28;21040;-73
2023/02/21 02:49:02;;;;;;;50.83;27.60;;;7.70;99.90;;;;;;5062784;28;20841;-71
2023/02/21 02:51:33;;;;;;;58.53;27.40;;;7.70;99.90;;;;;;5054093;28;20456;-74
2023/02/21 02:54:00;;;;;;;48.80;27.83;;;7.70;99.90;;;;;;5057511;28;20467;-72
2023/02/21 02:56:27;;;;;;;57.00;27.80;;;7.70;99.90;;;;;;5054897;28;20459;-73
2023/02/21 02:58:58;;;;;;;59.07;30.20;;;7.70;99.90;;;;;;5056340;28;20453;-75
2023/02/21 03:01:52;;;;;;;55.60;29.30;;;7.60;99.90;;;;;;5064029;28;20475;-75
2023/02/21 03:04:47;;;;;;;53.90;28.27;;;7.70;99.90;;;;;;5061099;28;20839;-75
2023/02/21 03:07:21;;;;;;;59.40;27.00;;;7.70;99.90;;;;;;5055397;28;20509;-73
2023/02/21 03:09:57;;;;;;;53.90;27.03;;;7.70;99.90;;;;;;5048769;28;21032;-70
2023/02/21 03:12:35;;;;;;;54.67;27.57;;;7.70;99.90;;;;;;5054982;28;20458;-75
2023/02/21 03:15:07;;;;;;;44.53;23.90;;;7.70;99.90;;;;;;5055655;28;22828;-72
2023/02/21 03:17:39;;;;;;;54.23;26.70;;;7.70;99.90;;;;;;5058820;28;20523;-74
2023/02/21 03:20:09;;;;;;;53.83;29.47;;;7.70;99.90;;;;;;5061054;28;20977;-73
2023/02/21 03:22:39;;;;;;;49.07;28.30;;;7.70;99.90;;;;;;5055897;28;20468;-71
2023/02/21 03:25:07;;;;;;;47.80;23.90;;;7.70;99.90;;;;;;5056972;28;20466;-74
2023/02/21 03:27:36;;;;;;;53.17;26.43;;;7.70;99.90;;;;;;5054706;28;21004;-71
2023/02/21 03:30:06;;;;;;;44.60;25.63;;;7.60;99.90;;;;;;5057605;28;20464;-73
2023/02/21 03:35:02;;;;;;;49.33;23.60;;;7.70;99.90;;;;;;5060909;28;20937;-74
2023/02/21 03:37:32;;;;;;;50.33;29.20;;;7.70;99.90;;;;;;5057112;28;20819;-72
2023/02/21 03:40:03;;;;;;;56.37;29.13;;;7.60;99.90;;;;;;5052712;28;20482;-76
2023/02/21 03:42:30;;;;;;;57.70;30.50;;;7.70;99.90;;;;;;5056386;28;20518;-73
2023/02/21 03:44:57;;;;;;;56.90;30.03;;;7.60;99.90;;;;;;5058996;28;20609;-73
2023/02/21 03:47:24;;;;;;;53.43;28.73;;;7.60;99.90;;;;;;5059371;28;20523;-74
2023/02/21 03:49:51;;;;;;;55.63;29.03;;;7.70;99.90;;;;;;5056903;28;20488;-75
2023/02/21 03:52:17;;;;;;;54.57;27.33;;;7.60;99.90;;;;;;5051613;28;20989;-73
2023/02/21 03:54:44;;;;;;;61.53;28.60;;;7.60;99.90;;;;;;5055649;28;20466;-75
2023/02/21 03:57:12;;;;;;;53.93;27.80;;;7.70;99.90;;;;;;5059207;28;20471;-72
2023/02/21 03:59:39;;;;;;;52.53;29.60;;;7.70;99.90;;;;;;5059842;28;20471;-72
2023/02/21 04:02:07;;;;;;;46.87;26.63;;;7.70;99.90;;;;;;5063762;28;20493;-72
2023/02/21 04:04:34;;;;;;;52.93;26.97;;;7.70;99.90;;;;;;5057532;28;20469;-76
2023/02/21 04:07:01;;;;;;;65.57;30.77;;;7.70;99.90;;;;;;5059496;28;20540;-73
2023/02/21 04:09:28;;;;;;;61.67;31.80;;;7.80;99.90;;;;;;5055684;28;20541;-70
2023/02/21 04:11:55;;;;;;;56.13;29.50;;;7.70;99.90;;;;;;5050495;28;20475;-72
2023/02/21 04:14:23;;;;;;;56.37;29.27;;;7.80;99.90;;;;;;5057141;28;20463;-73
2023/02/21 04:16:51;;;;;;;52.67;29.70;;;7.80;99.90;;;;;;5058441;28;20535;-75
2023/02/21 04:19:18;;;;;;;52.33;30.20;;;7.80;99.90;;;;;;5062500;28;20966;-72
2023/02/21 04:21:45;;;;;;;59.63;31.23;;;7.80;99.90;;;;;;5051867;28;20499;-71
2023/02/21 04:24:11;;;;;;;60.43;30.70;;;7.90;99.90;;;;;;5052797;28;20845;-73
2023/02/21 04:26:39;;;;;;;58.93;30.87;;;7.90;99.90;;;;;;5057656;28;20497;-70
2023/02/21 04:29:06;;;;;;;53.33;29.23;;;7.80;99.90;;;;;;5057933;28;20521;-72
2023/02/21 04:31:34;;;;;;;58.73;29.97;;;7.90;99.90;;;;;;5052082;28;20471;-71
2023/02/21 04:34:02;;;;;;;52.27;28.00;;;7.80;99.90;;;;;;5062647;28;20462;-70
2023/02/21 04:36:29;;;;;;;54.63;29.40;;;7.80;99.90;;;;;;5055654;28;20562;-69
2023/02/21 04:38:56;;;;;;;57.23;28.93;;;7.80;99.90;;;;;;5048124;28;20463;-73
2023/02/21 04:41:23;;;;;;;60.70;29.90;;;7.80;99.90;;;;;;5054394;28;20499;-72
2023/02/21 04:43:51;;;;;;;51.07;27.50;;;7.80;99.90;;;;;;5054578;28;20922;-70
2023/02/21 04:46:19;;;;;;;48.87;27.10;;;7.70;99.90;;;;;;5058117;28;20501;-72
2023/02/21 04:48:50;;;;;;;58.97;28.63;;;7.70;99.90;;;;;;5052823;28;21053;-72
2023/02/21 04:51:19;;;;;;;51.60;27.90;;;7.70;99.90;;;;;;5048563;28;20985;-72
2023/02/21 04:53:47;;;;;;;57.70;29.90;;;7.70;99.90;;;;;;5057814;28;20466;-71
2023/02/21 04:56:15;;;;;;;51.73;25.93;;;7.70;99.90;;;;;;5060486;28;20461;-70
2023/02/21 04:58:42;;;;;;;45.40;25.70;;;7.70;99.90;;;;;;5052656;28;20460;-71
2023/02/21 05:01:11;;;;;;;52.27;23.90;;;7.60;99.90;;;;;;5050873;28;20459;-71
2023/02/21 05:03:39;;;;;;;48.73;24.90;;;7.60;99.90;;;;;;5054576;28;20559;-72
2023/02/21 05:06:07;;;;;;;50.23;26.63;;;7.60;99.90;;;;;;5057410;28;20899;-71
2023/02/21 05:08:35;;;;;;;51.87;26.80;;;7.60;99.90;;;;;;5056104;28;20781;-74
2023/02/21 05:11:02;;;;;;;49.97;25.87;;;7.60;99.90;;;;;;5053389;28;20981;-73
2023/02/21 05:13:29;;;;;;;50.90;26.20;;;7.60;99.90;;;;;;5052204;28;20464;-75
2023/02/21 05:15:56;;;;;;;54.23;29.57;;;7.50;99.90;;;;;;5056659;28;20881;-73
2023/02/21 05:18:27;;;;;;;51.97;27.10;;;7.60;99.90;;;;;;5054007;28;20461;-74
2023/02/21 05:20:55;;;;;;;56.80;31.23;;;7.60;99.90;;;;;;5059932;28;20523;-75
2023/02/21 05:23:33;;;;;;;60.90;28.60;;;7.70;99.90;;;;;;5048614;28;20463;-71
2023/02/21 05:26:02;;;;;;;53.70;28.80;;;7.70;99.90;;;;;;5048585;28;20512;-74
2023/02/21 05:28:29;;;;;;;55.63;27.83;;;7.70;99.90;;;;;;5054361;28;20467;-75
2023/02/21 05:30:56;;;;;;;56.53;28.20;;;7.70;99.90;;;;;;5052448;28;20463;-71
2023/02/21 05:33:23;;;;;;;56.13;29.03;;;7.70;99.90;;;;;;5055373;28;20470;-75
2023/02/21 05:35:51;;;;;;;48.07;26.13;;;7.70;99.90;;;;;;5054568;28;20901;-76
2023/02/21 05:38:19;;;;;;;54.40;25.60;;;7.60;99.90;;;;;;5052369;28;20489;-73
2023/02/21 05:40:48;;;;;;;46.07;25.20;;;7.60;99.90;;;;;;5054363;28;20463;-73
2023/02/21 05:43:15;;;;;;;52.57;26.40;;;7.50;99.90;;;;;;5058665;28;20695;-71
2023/02/21 05:45:42;;;;;;;57.13;25.83;;;7.50;99.90;;;;;;5055398;28;20475;-74
2023/02/21 05:48:09;;;;;;;45.17;25.03;;;7.50;99.90;;;;;;5049691;28;20851;-73
2023/02/21 05:50:38;;;;;;;59.43;28.07;;;7.60;99.90;;;;;;5058563;28;20469;-71
2023/02/21 05:53:05;;;;;;;49.40;26.57;;;7.60;99.90;;;;;;5054218;28;20555;-72
2023/02/21 05:55:32;;;;;;;76.87;31.60;;;7.50;99.90;;;;;;5057661;28;20470;-74
2023/02/21 05:58:00;;;;;;;85.00;31.90;;;7.40;99.90;;;;;;5056351;28;20973;-72
2023/02/21 06:00:29;;;;;;;62.77;31.73;;;7.50;99.90;;;;;;5062285;28;20469;-75
2023/02/21 06:02:58;;;;;;;63.93;31.67;;;7.50;99.90;;;;;;5051570;28;20880;-74
2023/02/21 06:05:26;;;;;;;61.97;31.90;;;7.50;99.90;;;;;;5054835;28;20945;-72
2023/02/21 06:07:53;;;;;;;70.93;30.40;;;7.40;99.90;;;;;;5058826;28;20556;-76
2023/02/21 06:10:20;;;;;;;63.80;29.60;;;7.40;99.90;;;;;;5059298;28;20502;-72
2023/02/21 06:12:47;;;;;;;65.13;27.37;;;7.50;99.90;;;;;;5063849;28;20465;-73
2023/02/21 06:15:15;;;;;;;70.03;29.50;;;7.50;99.90;;;;;;5060970;28;20473;-74
2023/02/21 06:17:43;;;;;;;60.20;30.43;;;7.50;99.90;;;;;;5060826;28;20492;-76
2023/02/21 06:20:15;;;;;;;64.63;28.00;;;7.50;99.90;;;;;;5061460;28;20473;-73
2023/02/21 06:22:43;;;;;;;58.00;27.67;;;7.40;99.90;;;;;;5050886;28;21367;-73
2023/02/21 06:25:10;;;;;;;63.00;29.03;;;7.30;99.90;;;;;;5056909;28;20965;-73
2023/02/21 06:27:37;;;;;;;63.90;27.47;;;7.30;99.90;;;;;;5057962;28;20536;-74
2023/02/21 06:30:05;;;;;;;70.70;30.13;;;7.30;99.90;;;;;;5055599;28;20981;-72
2023/02/21 06:32:34;;;;;;;62.63;28.40;;;7.30;99.90;;;;;;5059304;28;20938;-74
2023/02/21 06:35:01;;;;;;;78.03;29.83;;;7.30;99.90;;;;;;5059227;28;20466;-72
2023/02/21 06:37:28;;;;;;;70.70;28.90;;;7.30;99.90;;;;;;5057698;28;20470;-68
2023/02/21 06:39:55;;;;;;;55.90;28.77;;;7.20;99.90;;;;;;5059176;28;20980;-72
2023/02/21 06:42:22;;;;;;;69.40;28.33;;;7.20;99.90;;;;;;5055167;28;20510;-73
2023/02/21 06:44:50;;;;;;;68.97;29.30;;;7.30;99.90;;;;;;5059040;28;20881;-70
2023/02/21 06:47:17;;;;;;;69.43;27.90;;;7.30;99.90;;;;;;5064391;28;21595;-72
2023/02/21 06:49:45;;;;;;;64.10;28.73;;;7.30;99.90;;;;;;5057088;28;20471;-68
2023/02/21 06:52:12;;;;;;;69.03;28.43;;;7.30;99.90;;;;;;5056684;28;21223;-71
2023/02/21 06:54:39;;;;;;;83.07;30.80;;;7.30;99.90;;;;;;5062339;28;20470;-70
2023/02/21 06:57:06;;;;;;;100.40;30.97;;;7.30;99.90;;;;;;5058981;28;20462;-75
2023/02/21 06:59:34;;;;;;;73.70;29.30;;;7.30;99.90;;;;;;5059586;28;20470;-74
2023/02/21 07:02:03;;;;;;;78.50;30.40;;;7.30;99.90;;;;;;5055194;28;20561;-72
2023/02/21 07:04:30;;;;;;;59.37;28.20;;;7.30;99.90;;;;;;5059635;28;20462;-73
2023/02/21 07:06:58;;;;;;;61.70;28.37;;;7.20;99.90;;;;;;5054609;28;20524;-72
2023/02/21 07:09:25;;;;;;;58.37;29.20;;;7.20;99.90;;;;;;5060614;28;20483;-74
2023/02/21 07:11:51;;;;;;;55.53;28.37;;;7.30;99.90;;;;;;5054254;28;20462;-74
2023/02/21 07:14:18;;;;;;;51.77;26.17;;;7.20;99.90;;;;;;5052565;28;20470;-73
2023/02/21 07:16:45;;;;;;;55.37;26.57;;;7.20;99.90;;;;;;5055414;28;20467;-70
2023/02/21 07:19:14;;;;;;;57.57;28.77;;;7.20;99.90;;;;;;5054446;28;20767;-74
2023/02/21 07:21:42;;;;;;;68.90;30.67;;;7.20;99.90;;;;;;5060800;28;20455;-74
2023/02/21 07:24:10;;;;;;;59.37;28.83;;;7.30;99.90;;;;;;5052346;28;20858;-71
2023/02/21 07:26:37;;;;;;;66.33;29.23;;;7.40;99.90;;;;;;5057095;28;20470;-74
2023/02/21 07:29:04;;;;;;;55.57;27.87;;;7.40;99.90;;;;;;5058994;28;20587;-75
2023/02/21 07:31:31;;;;;;;53.97;28.93;;;7.30;99.90;;;;;;5054024;28;20470;-74
2023/02/21 07:33:58;;;;;;;60.47;26.20;;;7.40;99.90;;;;;;5057807;28;21032;-71
2023/02/21 07:36:25;;;;;;;51.87;27.23;;;7.30;99.90;;;;;;5057157;28;20466;-68
2023/02/21 07:38:51;;;;;;;66.60;28.00;;;7.30;99.90;;;;;;5055361;28;20454;-72
2023/02/21 07:41:19;;;;;;;49.23;26.90;;;7.40;99.90;;;;;;5057960;28;20486;-69
2023/02/21 07:43:46;;;;;;;46.90;24.47;;;7.30;99.90;;;;;;5045418;28;20470;-74
2023/02/21 07:46:15;;;;;;;48.80;24.70;;;7.40;99.90;;;;;;5065732;28;20467;-73
2023/02/21 07:48:42;;;;;;;42.57;23.00;;;7.40;99.90;;;;;;5065398;28;20486;-72
2023/02/21 07:51:09;;;;;;;46.63;26.27;;;7.30;99.90;;;;;;5053628;28;20467;-71
2023/02/21 07:53:37;;;;;;;47.33;26.23;;;7.20;99.90;;;;;;5050337;28;20467;-71
2023/02/21 07:56:04;;;;;;;41.07;25.40;;;7.10;99.90;;;;;;5054957;28;20470;-72
2023/02/21 07:58:36;;;;;;;37.30;23.57;;;7.10;99.90;;;;;;5054980;28;20460;-72
2023/02/21 08:01:03;;;;;;;38.63;20.90;;;7.20;99.90;;;;;;5059485;28;21036;-71
2023/02/21 08:03:31;;;;;;;39.33;22.40;;;7.20;99.90;;;;;;5059271;28;20462;-70
2023/02/21 08:05:59;;;;;;;37.23;22.13;;;7.20;99.90;;;;;;5044020;28;20460;-73
2023/02/21 08:08:26;;;;;;;36.50;22.70;;;7.20;99.90;;;;;;5048717;28;20504;-70
2023/02/21 08:10:54;;;;;;;37.23;22.30;;;7.30;99.90;;;;;;5055832;28;20466;-72
2023/02/21 08:13:21;;;;;;;39.23;23.70;;;7.40;99.90;;;;;;5056538;28;20471;-72
2023/02/21 08:15:49;;;;;;;34.60;22.37;;;7.40;99.90;;;;;;5057024;28;20472;-74
2023/02/21 08:18:19;;;;;;;40.10;25.00;;;7.40;99.90;;;;;;5052038;28;20859;-70
2023/02/21 08:20:46;;;;;;;38.70;23.10;;;7.50;99.90;;;;;;5045820;28;20464;-73
2023/02/21 08:23:13;;;;;;;38.20;24.33;;;7.50;99.90;;;;;;5053548;28;20462;-74
2023/02/21 08:25:40;;;;;;;44.50;23.73;;;7.40;99.90;;;;;;5051224;28;20463;-70
2023/02/21 08:28:07;;;;;;;40.87;24.13;;;7.50;99.90;;;;;;5053294;28;20568;-73
2023/02/21 08:30:34;;;;;;;44.00;25.00;;;7.60;99.90;;;;;;5056259;28;20476;-72
2023/02/21 08:33:02;;;;;;;40.90;23.07;;;7.50;99.90;;;;;;5063085;28;20535;-73
2023/02/21 08:35:30;;;;;;;42.90;23.03;;;7.40;99.90;;;;;;5058495;28;20783;-74
2023/02/21 08:38:01;;;;;;;33.47;21.37;;;7.50;99.90;;;;;;5052678;28;20483;-71
2023/02/21 08:40:29;;;;;;;33.30;20.80;;;7.60;99.90;;;;;;5052380;28;20862;-71
2023/02/21 08:42:57;;;;;;;42.23;22.87;;;7.70;99.90;;;;;;5054235;28;20972;-73
2023/02/21 08:45:26;;;;;;;44.70;23.90;;;7.60;99.90;;;;;;5061127;28;21029;-71
2023/02/21 08:47:53;;;;;;;41.80;22.03;;;7.60;99.90;;;;;;5060725;28;20965;-73
2023/02/21 08:50:24;;;;;;;45.40;23.20;;;7.80;99.90;;;;;;5052366;28;20565;-73
2023/02/21 08:52:51;;;;;;;49.80;26.83;;;7.90;99.90;;;;;;5053482;28;20473;-73
2023/02/21 08:55:19;;;;;;;59.27;27.30;;;7.80;99.90;;;;;;5056238;28;20863;-73
2023/02/21 08:57:48;;;;;;;54.73;26.23;;;7.70;99.90;;;;;;5046837;28;20997;-74
2023/02/21 09:00:16;;;;;;;57.53;25.57;;;7.60;99.90;;;;;;5053464;28;20542;-72
2023/02/21 09:02:43;;;;;;;59.23;27.60;;;7.80;99.90;;;;;;5054425;28;20455;-72
2023/02/21 09:05:12;;;;;;;67.00;29.30;;;7.80;99.90;;;;;;5051497;28;21067;-72
2023/02/21 09:07:41;;;;;;;58.80;29.30;;;7.80;99.90;;;;;;5056662;28;20514;-73
2023/02/21 09:10:09;;;;;;;63.27;26.40;;;7.70;99.90;;;;;;5058161;28;20844;-75
2023/02/21 09:12:36;;;;;;;59.67;27.60;;;7.90;99.90;;;;;;5060806;28;20491;-72
2023/02/21 09:15:04;;;;;;;60.47;28.00;;;7.80;99.90;;;;;;5052905;28;20488;-73
2023/02/21 09:17:32;;;;;;;62.73;28.47;;;7.70;99.90;;;;;;5058195;28;20509;-73
2023/02/21 09:19:59;;;;;;;61.57;27.47;;;7.80;99.90;;;;;;5053962;28;21124;-72
2023/02/21 09:22:27;;;;;;;64.97;26.20;;;7.90;99.90;;;;;;5056791;28;20677;-70
2023/02/21 09:24:55;;;;;;;49.80;24.37;;;7.80;99.90;;;;;;5056453;28;20817;-71
2023/02/21 09:27:35;;;;;;;56.80;24.83;;;7.70;99.90;;;;;;5057217;28;20514;-73
2023/02/21 09:30:03;;;;;;;66.73;26.87;;;7.80;99.90;;;;;;5055121;28;20960;-73
2023/02/21 09:32:30;;;;;;;66.53;27.33;;;7.70;99.90;;;;;;5052677;28;20490;-71
2023/02/21 09:34:57;;;;;;;58.00;25.50;;;7.70;99.90;;;;;;5050556;28;20473;-72
2023/02/21 09:37:24;;;;;;;55.03;25.30;;;7.90;99.90;;;;;;5058400;28;20490;-73
2023/02/21 09:39:51;;;;;;;49.73;24.00;;;7.90;99.90;;;;;;5058158;28;20467;-71
2023/02/21 09:42:22;;;;;;;49.83;22.87;;;7.90;99.90;;;;;;5060685;28;20482;-73
2023/02/21 09:44:49;;;;;;;47.13;24.70;;;8.00;99.90;;;;;;5058226;28;20832;-71
2023/02/21 09:47:22;;;;;;;46.07;23.40;;;8.10;99.90;;;;;;5057063;28;20751;-75
2023/02/21 09:49:57;;;;;;;54.17;22.43;;;8.30;99.90;;;;;;5052144;28;20472;-73
2023/02/21 09:52:31;;;;;;;46.43;22.60;;;8.40;99.90;;;;;;5055029;28;20466;-75
2023/02/21 09:55:02;;;;;;;48.70;22.57;;;8.50;99.90;;;;;;5046082;28;21277;-71
2023/02/21 09:57:30;;;;;;;39.27;21.70;;;8.40;99.90;;;;;;5056807;28;20463;-71
2023/02/21 09:59:57;;;;;;;46.07;22.00;;;8.50;99.90;;;;;;5053757;28;20863;-71
2023/02/21 10:02:40;;;;;;;49.40;22.77;;;8.60;99.90;;;;;;5051156;28;20467;-74
2023/02/21 10:05:20;;;;;;;43.13;22.07;;;8.50;99.90;;;;;;5052810;28;20512;-74
2023/02/21 10:07:56;;;;;;;46.53;23.30;;;8.50;99.90;;;;;;5052675;28;20536;-74
2023/02/21 10:10:30;;;;;;;43.70;23.50;;;8.40;99.90;;;;;;5048739;28;21256;-71
2023/02/21 10:13:05;;;;;;;37.67;21.73;;;8.40;99.90;;;;;;5060486;28;20496;-74
2023/02/21 10:15:40;;;;;;;45.37;23.57;;;8.40;99.90;;;;;;5053817;28;20466;-73
2023/02/21 10:18:19;;;;;;;48.03;21.83;;;8.50;99.90;;;;;;5059107;28;20482;-73
2023/02/21 10:20:51;;;;;;;36.67;20.20;;;8.50;99.90;;;;;;5055904;28;20473;-71
2023/02/21 10:23:21;;;;;;;37.00;20.40;;;8.70;99.90;;;;;;5050543;28;20459;-71
2023/02/21 10:25:51;;;;;;;41.80;19.43;;;8.60;99.90;;;;;;5051901;28;20523;-73
2023/02/21 10:28:22;;;;;;;35.30;20.70;;;8.60;99.90;;;;;;5054224;28;20498;-73
2023/02/21 10:30:52;;;;;;;34.23;20.53;;;8.70;99.90;;;;;;5049220;28;20477;-71
2023/02/21 10:33:19;;;;;;;38.67;20.60;;;8.90;99.90;;;;;;5052906;28;20456;-73
2023/02/21 10:35:45;;;;;;;39.37;20.17;;;8.90;99.90;;;;;;5050106;28;20983;-73
2023/02/21 10:38:17;;;;;;;37.30;20.77;;;8.60;99.90;;;;;;5038210;28;20470;-73
2023/02/21 10:40:46;;;;;;;31.33;20.53;;;8.70;99.90;;;;;;5053828;28;20643;-73
2023/02/21 10:43:17;;;;;;;27.60;18.10;;;9.00;99.90;;;;;;5055113;28;20454;-74
2023/02/21 10:45:53;;;;;;;38.83;20.20;;;9.00;99.90;;;;;;5057944;28;20460;-73
2023/02/21 10:48:22;;;;;;;28.67;18.93;;;9.00;99.90;;;;;;5059219;28;20494;-74
2023/02/21 10:50:51;;;;;;;29.07;20.37;;;8.80;99.90;;;;;;5055937;28;20474;-76
2023/02/21 10:53:30;;;;;;;33.10;20.07;;;9.10;99.90;;;;;;5055039;28;20960;-73
2023/02/21 10:56:28;;;;;;;29.60;18.07;;;9.40;99.90;;;;;;5057094;28;21002;-74
2023/02/21 10:58:59;;;;;;;28.23;19.83;;;9.40;99.90;;;;;;5058930;28;20815;-72
2023/02/21 11:01:42;;;;;;;31.17;18.53;;;9.50;99.90;;;;;;5054487;28;20472;-74
2023/02/21 11:04:26;;;;;;;29.60;19.83;;;9.60;99.90;;;;;;5052428;28;20458;-75
2023/02/21 11:06:56;;;;;;;30.07;18.80;;;9.60;99.90;;;;;;5053907;28;20827;-75
2023/02/21 11:09:38;;;;;;;27.10;19.13;;;9.60;99.90;;;;;;5059481;28;20490;-74
2023/02/21 11:12:18;;;;;;;27.67;18.97;;;9.70;99.90;;;;;;5053519;28;22441;-72
2023/02/21 11:15:03;;;;;;;28.60;18.63;;;9.80;99.90;;;;;;5052559;28;20992;-72
2023/02/21 11:17:32;;;;;;;29.50;20.70;;;9.60;99.90;;;;;;5055732;28;20969;-72
2023/02/21 11:20:06;;;;;;;34.80;22.77;;;9.30;99.90;;;;;;5063684;28;20545;-72
2023/02/21 11:22:38;;;;;;;31.87;21.03;;;8.90;99.90;;;;;;5054503;28;20458;-72
2023/02/21 11:25:08;;;;;;;31.07;21.53;;;9.10;99.90;;;;;;5053152;28;20829;-71
2023/02/21 11:27:36;;;;;;;33.33;21.47;;;9.20;99.90;;;;;;5052310;28;20479;-72
2023/02/21 11:30:11;;;;;;;38.13;22.93;;;9.20;99.90;;;;;;5051633;28;20972;-72
2023/02/21 11:32:41;;;;;;;35.07;22.47;;;9.10;99.90;;;;;;5050960;28;20459;-72
2023/02/21 11:35:22;;;;;;;34.70;22.77;;;9.40;99.90;;;;;;5059396;28;20534;-72
2023/02/21 11:37:52;;;;;;;31.23;22.03;;;9.80;99.90;;;;;;5051049;28;20487;-72
2023/02/21 11:40:28;;;;;;;37.23;23.33;;;9.90;99.90;;;;;;5060714;28;20562;-72
2023/02/21 11:43:21;;;;;;;34.83;24.50;;;9.90;99.90;;;;;;5054467;28;20509;-72
2023/02/21 11:46:17;;;;;;;35.00;24.63;;;10.10;99.90;;;;;;5056137;28;21122;-72
2023/02/21 11:48:55;;;;;;;31.80;23.67;;;10.20;99.90;;;;;;5047527;28;20486;-72
2023/02/21 11:51:32;;;;;;;35.37;23.73;;;10.20;99.90;;;;;;5059555;28;20489;-72
2023/02/21 11:53:59;;;;;;;35.37;24.83;;;10.10;99.90;;;;;;5055328;28;20574;-71
2023/02/21 11:56:39;;;;;;;32.57;24.60;;;9.90;99.90;;;;;;5050463;28;20466;-72
2023/02/21 11:59:16;;;;;;;33.43;23.00;;;10.00;99.90;;;;;;5053100;28;20478;-74
2023/02/21 12:01:50;;;;;;;33.53;24.73;;;9.80;99.90;;;;;;5057164;28;20560;-71
2023/02/21 12:04:44;;;;;;;34.70;24.00;;;9.90;99.90;;;;;;5059079;28;20773;-72
2023/02/21 12:07:17;;;;;;;32.10;24.63;;;9.90;99.90;;;;;;5061844;28;20809;-72
2023/02/21 12:09:51;;;;;;;36.43;23.07;;;9.70;99.90;;;;;;5056946;28;20574;-72
2023/02/21 12:12:30;;;;;;;29.60;23.10;;;9.50;99.90;;;;;;5049432;28;20470;-72
2023/02/21 12:15:05;;;;;;;31.50;23.30;;;9.70;99.90;;;;;;5052502;28;20658;-72
2023/02/21 12:17:51;;;;;;;30.00;20.70;;;9.90;99.90;;;;;;5053931;28;21253;-72
2023/02/21 12:20:28;;;;;;;30.07;20.13;;;10.10;99.90;;;;;;5056664;28;20877;-72
2023/02/21 12:23:05;;;;;;;29.80;23.40;;;10.00;99.90;;;;;;5056626;28;20460;-72
2023/02/21 12:25:39;;;;;;;32.70;22.60;;;9.90;99.90;;;;;;5049688;28;20470;-72
2023/02/21 12:28:18;;;;;;;28.67;24.30;;;9.70;99.90;;;;;;5051630;28;20972;-70
2023/02/21 12:31:08;;;;;;;26.73;22.97;;;10.00;99.90;;;;;;5054830;28;21102;-75
2023/02/21 12:33:44;;;;;;;28.10;22.30;;;9.80;99.90;;;;;;5055543;28;20487;-73
2023/02/21 12:36:22;;;;;;;25.50;22.50;;;9.70;99.90;;;;;;5056231;28;20565;-72
2023/02/21 12:39:00;;;;;;;32.73;24.53;;;9.60;99.90;;;;;;5056346;28;20805;-72
2023/02/21 12:41:48;;;;;;;30.73;24.07;;;9.50;99.90;;;;;;5058798;28;20835;-72
2023/02/21 12:44:18;;;;;;;27.87;23.60;;;9.80;99.90;;;;;;5052049;28;20857;-74
2023/02/21 12:46:51;;;;;;;31.10;23.63;;;9.50;99.90;;;;;;5050780;28;20466;-75
2023/02/21 12:49:23;;;;;;;29.37;24.20;;;9.70;99.90;;;;;;5049314;28;20492;-75
2023/02/21 12:51:56;;;;;;;32.53;22.87;;;10.00;99.90;;;;;;5055515;28;20821;-73
2023/02/21 12:54:31;;;;;;;25.70;22.80;;;10.10;99.90;;;;;;5050248;28;20479;-71
2023/02/21 12:57:02;;;;;;;30.00;21.93;;;10.30;99.90;;;;;;5058003;28;20984;-72
2023/02/21 12:59:36;;;;;;;25.40;22.70;;;10.50;99.90;;;;;;5055039;28;20463;-72
2023/02/21 13:02:12;;;;;;;25.90;22.43;;;10.50;99.90;;;;;;5053474;28;20462;-72
2023/02/21 13:04:47;;;;;;;26.67;23.63;;;10.60;99.90;;;;;;5054508;28;20513;-71
2023/02/21 13:07:24;;;;;;;27.43;22.03;;;10.50;99.90;;;;;;5052272;28;20835;-71
2023/02/21 13:09:58;;;;;;;24.60;21.90;;;10.70;99.90;;;;;;5056180;28;20585;-73
2023/02/21 13:12:31;;;;;;;31.40;24.60;;;10.60;99.90;;;;;;5041030;28;20792;-71
2023/02/21 13:15:02;;;;;;;31.87;23.73;;;10.10;99.90;;;;;;5055233;28;20459;-73
2023/02/21 13:17:29;;;;;;;33.70;25.63;;;10.30;99.90;;;;;;5054307;28;20463;-72
2023/02/21 13:20:05;;;;;;;27.07;22.83;;;10.30;99.90;;;;;;5051794;28;20460;-72
2023/02/21 13:26:10;;;;;;;27.60;23.80;;;10.60;99.90;;;;;;5053801;28;20969;-74
2023/02/21 13:28:38;;;;;;;31.00;23.00;;;10.60;99.90;;;;;;5058082;28;20487;-72
2023/02/21 13:31:09;;;;;;;30.40;23.83;;;10.60;99.90;;;;;;5052706;28;20495;-74
2023/02/21 13:33:42;;;;;;;32.20;24.53;;;10.50;99.90;;;;;;5053776;28;20466;-71
2023/02/21 13:36:21;;;;;;;28.10;22.97;;;10.50;99.90;;;;;;5041010;28;20482;-75
2023/02/21 13:38:58;;;;;;;32.23;24.20;;;10.60;99.90;;;;;;5055615;28;20472;-76
2023/02/21 13:41:28;;;;;;;27.43;24.30;;;10.50;99.90;;;;;;5058039;28;20951;-74
2023/02/21 13:43:56;;;;;;;27.50;23.77;;;10.80;99.90;;;;;;5055662;28;20473;-73
2023/02/21 13:46:46;;;;;;;28.60;25.10;;;10.70;99.90;;;;;;5053896;28;20473;-72
2023/02/21 13:49:49;;;;;;;30.83;24.53;;;10.80;99.90;;;;;;5059410;28;20486;-72
2023/02/21 13:52:59;;;;;;;30.73;25.50;;;11.00;99.90;;;;;;5057997;28;20455;-72
2023/02/21 13:55:34;;;;;;;31.47;26.67;;;10.90;99.90;;;;;;5047909;28;20467;-74
2023/02/21 13:58:34;;;;;;;31.70;24.90;;;10.50;99.90;;;;;;5054680;28;20836;-73
2023/02/21 14:01:23;;;;;;;28.37;25.23;;;10.50;99.90;;;;;;5057742;28;20833;-72
2023/02/21 14:03:52;;;;;;;34.80;25.97;;;10.60;99.90;;;;;;5052805;28;20471;-76
2023/02/21 14:06:31;;;;;;;32.00;26.07;;;10.60;99.90;;;;;;5056979;28;21094;-74
2023/02/21 14:09:02;;;;;;;29.10;25.93;;;10.80;99.90;;;;;;5052953;28;20494;-74
2023/02/21 14:11:35;;;;;;;30.77;26.00;;;11.00;99.90;;;;;;5056346;28;20470;-72
2023/02/21 14:14:04;;;;;;;30.87;26.13;;;11.30;99.90;;;;;;5055009;28;20467;-71
2023/02/21 14:16:34;;;;;;;35.60;25.83;;;11.30;99.90;;;;;;5050246;28;21033;-72
2023/02/21 14:19:06;;;;;;;33.20;27.70;;;11.40;99.90;;;;;;5057772;28;20513;-72
2023/02/21 14:21:37;;;;;;;30.27;26.93;;;11.10;99.90;;;;;;5059722;28;21161;-71
2023/02/21 14:24:11;;;;;;;31.13;27.63;;;11.40;99.90;;;;;;5058071;28;20466;-74
2023/02/21 14:26:43;;;;;;;33.60;28.07;;;11.60;99.90;;;;;;5056928;28;20497;-72
2023/02/21 14:29:14;;;;;;;35.23;28.40;;;11.60;99.90;;;;;;5059190;28;20466;-71
2023/02/21 14:31:54;;;;;;;36.47;28.57;;;11.50;99.90;;;;;;5055809;28;20470;-71
2023/02/21 14:34:26;;;;;;;37.23;28.87;;;11.20;99.90;;;;;;5055543;28;20818;-74
2023/02/21 14:36:58;;;;;;;41.73;29.97;;;11.10;99.90;;;;;;5051746;28;20828;-71
2023/02/21 14:39:31;;;;;;;35.87;28.07;;;11.20;99.90;;;;;;5058848;28;20984;-71
2023/02/21 14:42:23;;;;;;;32.60;29.13;;;11.50;99.90;;;;;;5052964;28;20570;-71
2023/02/21 14:45:04;;;;;;;32.40;28.07;;;11.60;99.90;;;;;;5053176;28;20463;-74
2023/02/21 14:47:52;;;;;;;36.73;27.80;;;11.60;99.90;;;;;;5056164;28;20459;-72
2023/02/21 14:50:36;;;;;;;30.63;27.20;;;11.60;99.90;;;;;;5058626;28;21002;-71
2023/02/21 14:53:47;;;;;;;39.87;29.63;;;11.40;99.90;;;;;;5051909;28;20856;-71
2023/02/21 14:56:53;;;;;;;35.30;27.67;;;11.50;99.90;;;;;;5050372;28;20471;-71
2023/02/21 15:00:00;;;;;;;36.43;26.93;;;11.40;99.90;;;;;;5049103;28;20470;-71
2023/02/21 15:02:33;;;;;;;33.73;27.50;;;11.30;99.90;;;;;;4944062;28;20463;-71
2023/02/21 15:05:12;;;;;;;37.37;27.90;;;11.30;99.90;;;;;;5034194;28;20706;-71
2023/02/21 15:07:49;;;;;;;39.77;29.07;;;11.10;99.90;;;;;;5050179;28;20462;-71
2023/02/21 15:10:23;;;;;;;35.13;28.37;;;10.80;99.90;;;;;;5056405;28;20498;-73
2023/02/21 15:12:53;;;;;;;34.50;27.33;;;10.70;99.90;;;;;;5051613;28;20462;-71
2023/02/21 15:15:24;;;;;;;31.33;26.40;;;10.80;99.90;;;;;;5060385;28;20459;-75
2023/02/21 15:18:05;;;;;;;31.83;26.57;;;10.90;99.90;;;;;;5056612;28;20821;-71
2023/02/21 15:20:34;;;;;;;30.87;26.87;;;11.10;99.90;;;;;;5057534;28;20966;-71
2023/02/21 15:23:07;;;;;;;30.23;26.43;;;11.10;99.90;;;;;;5044486;28;20466;-73